createdAt,value
2022-12-18T00:00:49.487Z,102781.72
2022-12-18T00:03:16.636Z,102765.75
2022-12-18T00:05:53.156Z,102764.75
2022-12-18T00:08:20.032Z,102765.09
2022-12-18T00:10:46.485Z,102763.94
2022-12-18T00:13:13.368Z,102766.69
2022-12-18T00:15:40.564Z,102764.09
2022-12-18T00:18:07.372Z,102756.25
2022-12-18T00:20:39.014Z,102761.09
2022-12-18T00:23:06.551Z,102766.53
2022-12-18T00:25:37.475Z,102770.00
2022-12-18T00:28:05.186Z,102770.75
2022-12-18T00:30:31.668Z,102772.00
2022-12-18T00:32:58.652Z,102759.91
2022-12-18T00:35:25.861Z,102747.56
2022-12-18T00:37:52.730Z,102757.94
2022-12-18T00:40:19.096Z,102755.00
2022-12-18T00:42:57.681Z,102766.50
2022-12-18T00:45:29.596Z,102763.13
2022-12-18T00:47:56.882Z,102769.41
2022-12-18T00:50:25.306Z,102763.06
2022-12-18T00:52:52.031Z,102762.28
2022-12-18T00:55:19.322Z,102757.97
2022-12-18T00:57:47.070Z,102764.13
2022-12-18T01:00:15.743Z,102763.84
2022-12-18T01:02:43.480Z,102758.50
2022-12-18T01:05:11.921Z,102754.34
2022-12-18T01:07:38.658Z,102762.28
2022-12-18T01:10:06.191Z,102761.25
2022-12-18T01:12:35.350Z,102766.41
2022-12-18T01:15:02.328Z,102768.94
2022-12-18T01:17:28.765Z,102774.00
2022-12-18T01:19:55.148Z,102773.03
2022-12-18T01:22:21.593Z,102767.78
2022-12-18T01:24:48.043Z,102764.59
2022-12-18T01:27:14.799Z,102762.94
2022-12-18T01:29:41.326Z,102777.78
2022-12-18T01:32:08.735Z,102786.16
2022-12-18T01:34:37.412Z,102780.13
2022-12-18T01:37:05.435Z,102776.66
2022-12-18T01:39:35.392Z,102775.91
2022-12-18T01:42:09.864Z,102776.75
2022-12-18T01:45:02.619Z,102783.66
2022-12-18T01:47:46.370Z,102772.97
2022-12-18T01:50:28.036Z,102777.31
2022-12-18T01:53:06.562Z,102791.53
2022-12-18T01:55:40.865Z,102794.41
2022-12-18T01:58:07.467Z,102805.06
2022-12-18T02:00:33.875Z,102794.41
2022-12-18T02:03:00.486Z,102804.41
2022-12-18T02:05:46.842Z,102806.97
2022-12-18T02:08:33.409Z,102812.97
2022-12-18T02:11:41.644Z,102819.97
2022-12-18T02:14:19.100Z,102820.28
2022-12-18T02:17:04.315Z,102826.44
2022-12-18T02:19:52.086Z,102827.47
2022-12-18T02:22:36.051Z,102829.59
2022-12-18T02:25:51.346Z,102819.84
2022-12-18T02:28:22.107Z,102809.31
2022-12-18T02:30:51.740Z,102802.34
2022-12-18T02:33:22.376Z,102797.06
2022-12-18T02:35:50.042Z,102801.38
2022-12-18T02:38:17.751Z,102777.47
2022-12-18T02:40:47.156Z,102773.09
2022-12-18T02:43:17.188Z,102780.28
2022-12-18T02:45:49.315Z,102773.75
2022-12-18T02:48:18.544Z,102771.84
2022-12-18T02:50:58.577Z,102768.97
2022-12-18T02:53:51.057Z,102771.00
2022-12-18T02:56:39.365Z,102763.94
2022-12-18T02:59:24.993Z,102753.69
2022-12-18T03:02:05.146Z,102759.25
2022-12-18T03:04:41.175Z,102754.28
2022-12-18T03:07:14.200Z,102762.00
2022-12-18T03:09:47.469Z,102756.69
2022-12-18T03:12:23.829Z,102755.75
2022-12-18T03:14:56.751Z,102762.88
2022-12-18T03:17:27.935Z,102749.69
2022-12-18T03:19:59.297Z,102750.41
2022-12-18T03:22:30.527Z,102759.31
2022-12-18T03:24:58.287Z,102757.00
2022-12-18T03:27:27.191Z,102748.91
2022-12-18T03:30:15.732Z,102747.88
2022-12-18T03:32:45.436Z,102749.47
2022-12-18T03:35:15.619Z,102739.97
2022-12-18T03:37:42.456Z,102743.31
2022-12-18T03:40:09.823Z,102733.66
2022-12-18T03:42:50.852Z,102730.22
2022-12-18T03:45:33.408Z,102737.41
2022-12-18T03:48:14.852Z,102726.94
2022-12-18T03:51:30.418Z,102733.66
2022-12-18T03:54:05.304Z,102729.94
2022-12-18T03:56:43.064Z,102723.78
2022-12-18T03:59:13.701Z,102727.38
2022-12-18T04:01:46.288Z,102724.69
2022-12-18T04:04:17.486Z,102712.53
2022-12-18T04:06:47.636Z,102705.44
2022-12-18T04:09:15.301Z,102704.63
2022-12-18T04:11:47.080Z,102696.78
2022-12-18T04:14:17.937Z,102699.44
2022-12-18T04:16:45.979Z,102697.75
2022-12-18T04:19:15.520Z,102700.22
2022-12-18T04:21:44.289Z,102697.50
2022-12-18T04:24:12.621Z,102696.66
2022-12-18T04:26:45.035Z,102695.81
2022-12-18T04:29:15.873Z,102700.28
2022-12-18T04:31:42.528Z,102704.56
2022-12-18T04:34:09.639Z,102705.44
2022-12-18T04:36:42.079Z,102712.50
2022-12-18T04:39:08.606Z,102720.44
2022-12-18T04:41:35.592Z,102728.38
2022-12-18T04:44:03.112Z,102727.50
2022-12-18T04:46:29.638Z,102727.47
2022-12-18T04:48:56.105Z,102735.31
2022-12-18T04:51:26.319Z,102734.38
2022-12-18T04:53:53.542Z,102739.66
2022-12-18T04:56:19.980Z,102738.91
2022-12-18T04:58:46.479Z,102746.06
2022-12-18T05:01:16.890Z,102749.69
2022-12-18T05:03:44.232Z,102752.31
2022-12-18T05:06:11.170Z,102752.19
2022-12-18T05:08:37.704Z,102751.34
2022-12-18T05:11:07.199Z,102752.19
2022-12-18T05:13:34.172Z,102753.91
2022-12-18T05:16:00.784Z,102750.28
2022-12-18T05:18:27.913Z,102755.69
2022-12-18T05:20:54.801Z,102757.59
2022-12-18T05:23:22.688Z,102758.59
2022-12-18T05:26:02.119Z,102764.72
2022-12-18T05:28:30.323Z,102762.13
2022-12-18T05:30:59.534Z,102756.81
2022-12-18T05:33:29.311Z,102753.38
2022-12-18T05:35:58.641Z,102749.94
2022-12-18T05:38:26.947Z,102745.66
2022-12-18T05:40:53.947Z,102743.09
2022-12-18T05:43:22.649Z,102741.38
2022-12-18T05:45:50.018Z,102740.75
2022-12-18T05:48:17.103Z,102734.69
2022-12-18T05:50:48.355Z,102732.97
2022-12-18T05:53:17.181Z,102731.50
2022-12-18T05:55:44.623Z,102727.44
2022-12-18T05:58:12.659Z,102724.06
2022-12-18T06:00:41.061Z,102721.47
2022-12-18T06:03:12.609Z,102724.97
2022-12-18T06:05:41.674Z,102717.25
2022-12-18T06:08:08.375Z,102715.91
2022-12-18T06:10:34.893Z,102721.09
2022-12-18T06:13:01.919Z,102713.16
2022-12-18T06:15:28.330Z,102724.47
2022-12-18T06:17:54.725Z,102722.66
2022-12-18T06:20:21.731Z,102725.28
2022-12-18T06:22:48.125Z,102723.69
2022-12-18T06:25:14.820Z,102725.59
2022-12-18T06:27:41.332Z,102723.00
2022-12-18T06:30:09.356Z,102717.00
2022-12-18T06:32:35.781Z,102713.47
2022-12-18T06:35:02.188Z,102701.19
2022-12-18T06:37:29.144Z,102688.00
2022-12-18T06:39:55.642Z,102674.06
2022-12-18T06:42:23.971Z,102666.25
2022-12-18T06:44:50.411Z,102659.59
2022-12-18T06:47:16.758Z,102659.59
2022-12-18T06:49:43.960Z,102659.47
2022-12-18T06:52:10.393Z,102660.41
2022-12-18T06:54:36.743Z,102655.38
2022-12-18T06:57:03.242Z,102658.00
2022-12-18T06:59:29.648Z,102657.16
2022-12-18T07:01:56.208Z,102655.38
2022-12-18T07:04:22.691Z,102649.25
2022-12-18T07:06:49.085Z,102655.25
2022-12-18T07:09:15.533Z,102654.41
2022-12-18T07:11:42.620Z,102660.63
2022-12-18T07:14:08.987Z,102664.13
2022-12-18T07:16:35.447Z,102661.44
2022-12-18T07:19:01.941Z,102657.94
2022-12-18T07:21:28.600Z,102648.22
2022-12-18T07:23:54.959Z,102653.47
2022-12-18T07:26:22.842Z,102647.72
2022-12-18T07:28:50.124Z,102655.63
2022-12-18T07:31:19.476Z,102642.38
2022-12-18T07:33:46.984Z,102633.44
2022-12-18T07:36:13.676Z,102625.53
2022-12-18T07:38:40.736Z,102616.97
2022-12-18T07:41:12.789Z,102606.34
2022-12-18T07:43:40.749Z,102593.38
2022-12-18T07:46:09.617Z,102600.31
2022-12-18T07:48:36.239Z,102598.22
2022-12-18T07:51:07.318Z,102584.50
2022-12-18T07:53:34.740Z,102578.44
2022-12-18T07:56:26.469Z,102579.34
2022-12-18T07:58:49.932Z,102581.72
2022-12-18T08:01:16.371Z,102581.00
2022-12-18T08:03:43.738Z,102582.47
2022-12-18T08:06:10.848Z,102590.13
2022-12-18T08:08:37.824Z,102592.88
2022-12-18T08:11:04.288Z,102601.72
2022-12-18T08:13:30.636Z,102603.34
2022-12-18T08:15:58.942Z,102615.56
2022-12-18T08:18:26.338Z,102618.94
2022-12-18T08:20:52.771Z,102626.88
2022-12-18T08:23:19.186Z,102629.72
2022-12-18T08:25:45.539Z,102623.38
2022-12-18T08:28:12.226Z,102620.63
2022-12-18T08:30:38.722Z,102633.94
2022-12-18T08:33:05.157Z,102629.59
2022-12-18T08:35:38.819Z,102618.28
2022-12-18T08:38:07.581Z,102610.38
2022-12-18T08:40:34.118Z,102596.50
2022-12-18T08:43:19.168Z,102602.09
2022-12-18T08:45:45.602Z,102611.66
2022-12-18T08:48:12.016Z,102605.53
2022-12-18T08:50:38.423Z,102612.47
2022-12-18T08:53:05.148Z,102610.41
2022-12-18T08:55:31.566Z,102611.03
2022-12-18T08:57:57.920Z,102599.53
2022-12-18T09:00:24.463Z,102595.31
2022-12-18T09:02:51.006Z,102593.53
2022-12-18T09:05:17.489Z,102599.81
2022-12-18T09:07:43.923Z,102604.94
2022-12-18T09:10:11.240Z,102603.75
2022-12-18T09:12:37.659Z,102607.22
2022-12-18T09:15:04.578Z,102612.16
2022-12-18T09:17:31.002Z,102603.50
2022-12-18T09:19:57.483Z,102602.59
2022-12-18T09:22:23.836Z,102604.28
2022-12-18T09:24:50.267Z,102603.31
2022-12-18T09:27:16.685Z,102602.31
2022-12-18T09:29:43.507Z,102588.22
2022-12-18T09:32:09.934Z,102587.38
2022-12-18T09:34:36.338Z,102580.50
2022-12-18T09:37:03.032Z,102580.44
2022-12-18T09:39:29.452Z,102577.91
2022-12-18T09:41:58.755Z,102575.94
2022-12-18T09:44:29.753Z,102573.25
2022-12-18T09:47:18.191Z,102563.47
2022-12-18T09:49:53.583Z,102557.34
2022-12-18T09:52:26.460Z,102553.94
2022-12-18T09:55:00.943Z,102547.72
2022-12-18T09:57:27.540Z,102549.31
2022-12-18T10:00:04.114Z,102547.72
2022-12-18T10:02:38.151Z,102541.66
2022-12-18T10:05:12.497Z,102563.25
2022-12-18T10:07:53.529Z,102569.13
2022-12-18T10:10:24.028Z,102574.63
2022-12-18T10:13:02.587Z,102575.47
2022-12-18T10:15:39.569Z,102571.66
2022-12-18T10:18:22.038Z,102562.72
2022-12-18T10:21:00.927Z,102560.03
2022-12-18T10:23:37.112Z,102551.41
2022-12-18T10:26:06.642Z,102543.63
2022-12-18T10:28:36.787Z,102552.13
2022-12-18T10:31:05.791Z,102543.84
2022-12-18T10:33:33.850Z,102549.63
2022-12-18T10:36:01.187Z,102539.00
2022-12-18T10:38:32.843Z,102544.50
2022-12-18T10:41:02.358Z,102541.00
2022-12-18T10:43:31.233Z,102537.31
2022-12-18T10:46:09.854Z,102538.06
2022-12-18T10:48:43.154Z,102531.09
2022-12-18T10:51:12.663Z,102524.88
2022-12-18T10:53:42.749Z,102517.81
2022-12-18T10:56:09.764Z,102507.94
2022-12-18T10:58:38.862Z,102504.25
2022-12-18T11:01:11.375Z,102491.03
2022-12-18T11:03:39.390Z,102485.59
2022-12-18T11:06:14.408Z,102487.94
2022-12-18T11:08:43.493Z,102490.44
2022-12-18T11:11:23.752Z,102494.38
2022-12-18T11:14:07.525Z,102496.22
2022-12-18T11:16:57.847Z,102482.09
2022-12-18T11:19:37.235Z,102475.28
2022-12-18T11:22:24.112Z,102476.25
2022-12-18T11:25:32.213Z,102476.69
2022-12-18T11:27:58.749Z,102483.97
2022-12-18T11:30:25.167Z,102482.13
2022-12-18T11:33:04.808Z,102485.69
2022-12-18T11:35:33.891Z,102474.34
2022-12-18T11:38:11.718Z,102465.41
2022-12-18T11:40:41.715Z,102462.53
2022-12-18T11:43:14.319Z,102455.94
2022-12-18T11:45:48.228Z,102455.16
2022-12-18T11:48:22.556Z,102448.78
2022-12-18T11:50:55.113Z,102442.81
2022-12-18T11:53:21.888Z,102434.81
2022-12-18T11:56:17.513Z,102416.09
2022-12-18T11:58:48.773Z,102412.66
2022-12-18T12:01:43.415Z,102398.72
2022-12-18T12:04:29.286Z,102395.66
2022-12-18T12:07:22.538Z,102397.63
2022-12-18T12:10:03.052Z,102391.44
2022-12-18T12:12:48.581Z,102398.63
2022-12-18T12:15:43.867Z,102396.69
2022-12-18T12:18:28.878Z,102389.13
2022-12-18T12:21:16.140Z,102374.56
2022-12-18T12:24:13.508Z,102379.47
2022-12-18T12:27:01.803Z,102369.69
2022-12-18T12:29:52.792Z,102375.81
2022-12-18T12:32:25.609Z,102377.50
2022-12-18T12:35:09.490Z,102372.22
2022-12-18T12:38:03.277Z,102366.19
2022-12-18T12:40:52.390Z,102358.72
2022-12-18T12:43:39.225Z,102353.13
2022-12-18T12:46:14.160Z,102344.94
2022-12-18T12:48:50.550Z,102344.88
2022-12-18T12:51:22.003Z,102357.06
2022-12-18T12:53:49.794Z,102357.91
2022-12-18T12:56:19.801Z,102355.81
2022-12-18T12:58:53.140Z,102346.53
2022-12-18T13:01:37.285Z,102348.84
2022-12-18T13:04:23.995Z,102344.19
2022-12-18T13:06:59.495Z,102345.38
2022-12-18T13:09:25.987Z,102331.13
2022-12-18T13:12:11.350Z,102328.31
2022-12-18T13:14:40.683Z,102321.97
2022-12-18T13:17:18.382Z,102321.28
2022-12-18T13:19:45.795Z,102325.31
2022-12-18T13:22:31.448Z,102326.84
2022-12-18T13:24:58.231Z,102317.22
2022-12-18T13:27:43.774Z,102313.38
2022-12-18T13:30:32.103Z,102298.53
2022-12-18T13:33:19.058Z,102293.56
2022-12-18T13:35:48.765Z,102278.25
2022-12-18T13:38:35.948Z,102273.22
2022-12-18T13:41:05.279Z,102264.50
2022-12-18T13:43:43.774Z,102254.59
2022-12-18T13:46:29.837Z,102250.94
2022-12-18T13:49:03.628Z,102253.50
2022-12-18T13:51:33.865Z,102258.94
2022-12-18T13:54:18.620Z,102260.69
2022-12-18T13:56:47.324Z,102258.03
2022-12-18T13:59:40.887Z,102255.38
2022-12-18T14:02:22.725Z,102251.13
2022-12-18T14:04:50.254Z,102246.50
2022-12-18T14:07:23.124Z,102242.25
2022-12-18T14:10:01.988Z,102249.31
2022-12-18T14:12:57.631Z,102251.63
2022-12-18T14:15:43.487Z,102235.84
2022-12-18T14:18:47.431Z,102222.78
2022-12-18T14:21:30.235Z,102235.59
2022-12-18T14:24:19.736Z,102239.81
2022-12-18T14:26:48.477Z,102231.38
2022-12-18T14:29:24.875Z,102235.06
2022-12-18T14:32:17.406Z,102225.88
2022-12-18T14:34:53.166Z,102214.78
2022-12-18T14:37:25.918Z,102198.97
2022-12-18T14:40:03.229Z,102198.63
2022-12-18T14:42:34.685Z,102195.66
2022-12-18T14:45:42.614Z,102196.41
2022-12-18T14:48:23.340Z,102193.75
2022-12-18T14:51:18.326Z,102189.50
2022-12-18T14:53:53.972Z,102193.19
2022-12-18T14:56:23.218Z,102186.94
2022-12-18T14:58:56.410Z,102176.38
2022-12-18T15:01:27.403Z,102175.63
2022-12-18T15:03:55.342Z,102172.97
2022-12-18T15:06:31.106Z,102179.84
2022-12-18T15:08:59.228Z,102185.41
2022-12-18T15:11:36.559Z,102182.44
2022-12-18T15:14:31.916Z,102178.00
2022-12-18T15:17:01.024Z,102177.88
2022-12-18T15:19:36.584Z,102177.03
2022-12-18T15:22:06.332Z,102174.28
2022-12-18T15:24:33.551Z,102169.78
2022-12-18T15:27:01.168Z,102151.28
2022-12-18T15:29:27.918Z,102149.47
2022-12-18T15:32:06.445Z,102151.44
2022-12-18T15:34:34.927Z,102147.44
2022-12-18T15:37:01.362Z,102149.91
2022-12-18T15:39:27.763Z,102141.72
2022-12-18T15:42:12.716Z,102138.91
2022-12-18T15:44:39.320Z,102130.13
2022-12-18T15:47:11.531Z,102134.56
2022-12-18T15:49:37.985Z,102130.38
2022-12-18T15:52:05.223Z,102122.19
2022-12-18T15:54:50.190Z,102125.84
2022-12-18T15:57:25.461Z,102118.59
2022-12-18T15:59:54.051Z,102117.56
2022-12-18T16:02:23.652Z,102119.94
2022-12-18T16:04:52.947Z,102109.13
2022-12-18T16:07:25.436Z,102108.19
2022-12-18T16:09:53.126Z,102096.94
2022-12-18T16:12:24.921Z,102095.63
2022-12-18T16:14:51.414Z,102095.44
2022-12-18T16:17:18.031Z,102086.28
2022-12-18T16:19:45.324Z,102086.38
2022-12-18T16:22:23.482Z,102091.97
2022-12-18T16:24:51.196Z,102087.44
2022-12-18T16:27:17.766Z,102089.34
2022-12-18T16:29:44.192Z,102088.47
2022-12-18T16:32:15.713Z,102082.72
2022-12-18T16:34:43.046Z,102077.81
2022-12-18T16:37:10.979Z,102079.59
2022-12-18T16:39:38.918Z,102070.81
2022-12-18T16:42:09.896Z,102067.97
2022-12-18T16:44:36.389Z,102068.06
2022-12-18T16:47:04.262Z,102051.53
2022-12-18T16:49:31.338Z,102058.72
2022-12-18T16:51:57.776Z,102047.56
2022-12-18T16:54:25.758Z,102036.78
2022-12-18T16:56:52.644Z,102041.03
2022-12-18T16:59:19.233Z,102044.81
2022-12-18T17:01:47.116Z,102044.81
2022-12-18T17:04:14.729Z,102048.41
2022-12-18T17:06:43.790Z,102045.56
2022-12-18T17:09:17.134Z,102047.66
2022-12-18T17:11:44.166Z,102043.81
2022-12-18T17:14:15.104Z,102042.28
2022-12-18T17:16:41.582Z,102043.69
2022-12-18T17:19:13.741Z,102045.75
2022-12-18T17:21:45.211Z,102048.59
2022-12-18T17:24:11.564Z,102038.59
2022-12-18T17:26:37.987Z,102040.28
2022-12-18T17:29:04.540Z,102040.66
2022-12-18T17:31:31.523Z,102033.38
2022-12-18T17:33:58.492Z,102024.69
2022-12-18T17:36:28.418Z,102029.22
2022-12-18T17:38:57.945Z,102031.97
2022-12-18T17:41:25.670Z,102034.63
2022-12-18T17:43:53.746Z,102043.22
2022-12-18T17:46:20.657Z,102031.88
2022-12-18T17:48:47.606Z,102042.84
2022-12-18T17:51:15.339Z,102029.06
2022-12-18T17:53:42.345Z,102021.84
2022-12-18T17:56:13.136Z,102026.50
2022-12-18T17:58:40.467Z,102029.22
2022-12-18T18:01:07.013Z,102015.31
2022-12-18T18:03:34.495Z,102018.22
2022-12-18T18:06:02.226Z,102008.59
2022-12-18T18:08:29.027Z,102013.50
2022-12-18T18:11:16.229Z,102024.09
2022-12-18T18:14:00.715Z,102018.69
2022-12-18T18:16:50.283Z,102025.59
2022-12-18T18:19:20.011Z,102017.09
2022-12-18T18:21:48.363Z,102014.94
2022-12-18T18:24:18.702Z,102009.66
2022-12-18T18:26:46.731Z,102008.03
2022-12-18T18:29:16.211Z,102009.91
2022-12-18T18:31:42.762Z,102010.66
2022-12-18T18:34:24.431Z,102000.81
2022-12-18T18:36:51.829Z,102014.34
2022-12-18T18:39:18.792Z,102013.94
2022-12-18T18:41:48.069Z,101999.03
2022-12-18T18:44:16.415Z,101998.53
2022-12-18T18:46:42.766Z,101991.25
2022-12-18T18:49:09.572Z,101987.41
2022-12-18T18:51:35.969Z,101989.69
2022-12-18T18:54:02.535Z,101990.03
2022-12-18T18:59:16.320Z,101986.09
2022-12-18T19:01:43.932Z,101989.56
2022-12-18T19:04:10.755Z,101981.09
2022-12-18T19:06:37.176Z,101984.28
2022-12-18T19:09:04.782Z,101993.00
2022-12-18T19:11:49.701Z,101993.63
2022-12-18T19:14:16.880Z,101988.78
2022-12-18T19:16:45.394Z,101988.50
2022-12-18T19:19:13.023Z,101988.97
2022-12-18T19:21:40.751Z,101986.03
2022-12-18T19:24:07.570Z,101985.22
2022-12-18T19:26:35.790Z,101991.75
2022-12-18T19:29:05.700Z,101992.03
2022-12-18T19:31:36.172Z,101988.66
2022-12-18T19:34:04.813Z,101986.47
2022-12-18T19:36:32.537Z,101987.81
2022-12-18T19:39:01.011Z,101988.66
2022-12-18T19:41:31.205Z,101981.84
2022-12-18T19:43:59.340Z,101982.03
2022-12-18T19:46:25.807Z,101988.84
2022-12-18T19:48:52.448Z,101989.03
2022-12-18T19:51:25.275Z,101982.81
2022-12-18T19:53:58.132Z,101977.69
2022-12-18T19:56:28.559Z,101975.06
2022-12-18T19:58:55.406Z,101973.94
2022-12-18T20:01:23.652Z,101966.47
2022-12-18T20:03:52.591Z,101971.22
2022-12-18T20:06:31.990Z,101970.38
2022-12-18T20:09:04.841Z,101971.28
2022-12-18T20:11:33.245Z,101978.31
2022-12-18T20:14:02.214Z,101979.16
2022-12-18T20:19:15.910Z,101969.09
2022-12-18T20:20:46.137Z,101968.66
2022-12-18T20:21:42.663Z,101974.09
2022-12-18T20:24:09.377Z,101954.06
2022-12-18T20:26:35.798Z,101962.13
2022-12-18T20:29:02.167Z,101958.41
2022-12-18T20:31:28.649Z,101965.16
2022-12-18T20:33:59.592Z,101954.56
2022-12-18T20:36:28.130Z,101945.38
2022-12-18T20:38:58.191Z,101946.72
2022-12-18T20:41:38.529Z,101940.16
2022-12-18T20:44:22.371Z,101932.16
2022-12-18T20:46:56.216Z,101944.06
2022-12-18T20:49:24.983Z,101931.50
2022-12-18T20:51:53.285Z,101918.69
2022-12-18T20:54:20.930Z,101922.81
2022-12-18T20:56:47.413Z,101909.88
2022-12-18T20:59:14.354Z,101912.50
2022-12-18T21:01:41.627Z,101903.41
2022-12-18T21:04:15.259Z,101895.00
2022-12-18T21:06:47.510Z,101892.47
2022-12-18T21:09:17.219Z,101881.88
2022-12-18T21:12:02.218Z,101886.00
2022-12-18T21:14:30.908Z,101881.31
2022-12-18T21:17:00.689Z,101882.69
2022-12-18T21:19:28.215Z,101887.97
2022-12-18T21:21:56.420Z,101877.59
2022-12-18T21:24:23.309Z,101875.59
2022-12-18T21:26:49.955Z,101873.25
2022-12-18T21:29:19.595Z,101879.91
2022-12-18T21:31:46.710Z,101871.00
2022-12-18T21:34:20.452Z,101872.31
2022-12-18T21:36:48.240Z,101879.09
2022-12-18T21:39:16.277Z,101875.50
2022-12-18T21:42:01.578Z,101860.66
2022-12-18T21:44:28.192Z,101849.44
2022-12-18T21:46:59.797Z,101845.09
2022-12-18T21:49:30.239Z,101851.88
2022-12-18T21:51:58.529Z,101846.59
2022-12-18T21:54:26.968Z,101850.59
2022-12-18T21:56:55.723Z,101840.53
2022-12-18T21:59:28.187Z,101828.13
2022-12-18T22:01:57.445Z,101823.59
2022-12-18T22:04:25.239Z,101826.56
2022-12-18T22:06:52.431Z,101823.72
2022-12-18T22:09:21.161Z,101818.31
2022-12-18T22:11:49.094Z,101816.28
2022-12-18T22:14:19.074Z,101807.06
2022-12-18T22:16:45.733Z,101798.06
2022-12-18T22:19:14.171Z,101788.19
2022-12-18T22:21:45.522Z,101777.91
2022-12-18T22:24:12.952Z,101769.88
2022-12-18T22:26:40.406Z,101772.63
2022-12-18T22:29:26.678Z,101766.28
2022-12-18T22:31:53.025Z,101766.78
2022-12-18T22:34:22.876Z,101753.88
2022-12-18T22:36:50.712Z,101742.22
2022-12-18T22:39:19.922Z,101732.88
2022-12-18T22:41:46.598Z,101735.19
2022-12-18T22:44:14.998Z,101728.75
2022-12-18T22:46:46.569Z,101736.63
2022-12-18T22:49:18.889Z,101741.47
2022-12-18T22:51:45.331Z,101735.88
2022-12-18T22:54:12.020Z,101715.13
2022-12-18T22:56:38.851Z,101709.56
2022-12-18T22:59:05.895Z,101719.13
2022-12-18T23:01:32.981Z,101726.31
2022-12-18T23:04:02.165Z,101718.28
2022-12-18T23:06:28.768Z,101709.16
2022-12-18T23:08:57.828Z,101708.19
2022-12-18T23:11:25.897Z,101715.13
2022-12-18T23:13:53.189Z,101715.72
2022-12-18T23:16:23.382Z,101707.34
2022-12-18T23:18:55.093Z,101703.41
2022-12-18T23:21:22.584Z,101700.03
2022-12-18T23:23:50.164Z,101702.22
2022-12-18T23:26:19.865Z,101704.03
2022-12-18T23:28:46.879Z,101682.75
2022-12-18T23:31:24.741Z,101667.56
2022-12-18T23:33:52.772Z,101664.84
2022-12-18T23:36:20.449Z,101658.13
2022-12-18T23:38:51.527Z,101667.66
2022-12-18T23:41:19.765Z,101658.88
2022-12-18T23:43:46.239Z,101680.44
2022-12-18T23:46:28.247Z,101674.22
2022-12-18T23:49:01.190Z,101670.31
2022-12-18T23:51:28.460Z,101666.59
2022-12-18T23:53:57.449Z,101666.91
2022-12-18T23:56:25.139Z,101670.72
2022-12-18T23:58:52.657Z,101661.59
